sensor_id;sensor_type;location;lat;lon;timestamp;P1;durP1;ratioP1;P2;durP2;ratioP2
8628;SDS011;4352;49.404;11.092;2022-12-15T00:00:13;37.57;;;19.47;;
8628;SDS011;4352;49.404;11.092;2022-12-15T00:03:02;34.47;;;18.77;;
8628;SDS011;4352;49.404;11.092;2022-12-15T00:05:47;40.93;;;20.57;;
8628;SDS011;4352;49.404;11.092;2022-12-15T00:08:32;40.50;;;20.23;;
8628;SDS011;4352;49.404;11.092;2022-12-15T00:11:16;40.27;;;21.50;;
8628;SDS011;4352;49.404;11.092;2022-12-15T00:14:01;38.77;;;20.63;;
8628;SDS011;4352;49.404;11.092;2022-12-15T00:16:47;47.20;;;21.70;;
8628;SDS011;4352;49.404;11.092;2022-12-15T00:19:31;46.80;;;21.60;;
8628;SDS011;4352;49.404;11.092;2022-12-15T00:22:16;38.57;;;19.53;;
8628;SDS011;4352;49.404;11.092;2022-12-15T00:25:00;36.80;;;19.50;;
8628;SDS011;4352;49.404;11.092;2022-12-15T00:27:45;38.47;;;20.13;;
8628;SDS011;4352;49.404;11.092;2022-12-15T00:30:30;31.13;;;18.07;;
8628;SDS011;4352;49.404;11.092;2022-12-15T00:33:16;36.77;;;19.33;;
8628;SDS011;4352;49.404;11.092;2022-12-15T00:36:00;37.43;;;19.47;;
8628;SDS011;4352;49.404;11.092;2022-12-15T00:38:45;35.93;;;19.13;;
8628;SDS011;4352;49.404;11.092;2022-12-15T00:41:12;38.57;;;20.47;;
8628;SDS011;4352;49.404;11.092;2022-12-15T00:43:40;35.47;;;19.37;;
8628;SDS011;4352;49.404;11.092;2022-12-15T00:46:07;37.87;;;18.90;;
8628;SDS011;4352;49.404;11.092;2022-12-15T00:48:53;35.57;;;19.17;;
8628;SDS011;4352;49.404;11.092;2022-12-15T00:51:20;34.23;;;19.30;;
8628;SDS011;4352;49.404;11.092;2022-12-15T00:54:05;41.57;;;19.73;;
8628;SDS011;4352;49.404;11.092;2022-12-15T00:56:50;35.90;;;18.77;;
8628;SDS011;4352;49.404;11.092;2022-12-15T00:59:34;36.67;;;19.40;;
8628;SDS011;4352;49.404;11.092;2022-12-15T01:02:19;38.50;;;21.03;;
8628;SDS011;4352;49.404;11.092;2022-12-15T01:05:06;38.37;;;20.43;;
8628;SDS011;4352;49.404;11.092;2022-12-15T01:07:50;41.90;;;20.30;;
8628;SDS011;4352;49.404;11.092;2022-12-15T01:10:35;38.60;;;18.90;;
8628;SDS011;4352;49.404;11.092;2022-12-15T01:13:20;35.07;;;19.70;;
8628;SDS011;4352;49.404;11.092;2022-12-15T01:16:08;36.57;;;19.47;;
8628;SDS011;4352;49.404;11.092;2022-12-15T01:18:52;38.10;;;20.43;;
8628;SDS011;4352;49.404;11.092;2022-12-15T01:21:38;40.47;;;20.33;;
8628;SDS011;4352;49.404;11.092;2022-12-15T01:24:05;37.70;;;19.57;;
8628;SDS011;4352;49.404;11.092;2022-12-15T01:26:33;35.53;;;19.10;;
8628;SDS011;4352;49.404;11.092;2022-12-15T01:29:00;37.87;;;20.70;;
8628;SDS011;4352;49.404;11.092;2022-12-15T01:31:27;40.83;;;20.87;;
8628;SDS011;4352;49.404;11.092;2022-12-15T01:33:54;43.57;;;21.47;;
8628;SDS011;4352;49.404;11.092;2022-12-15T01:36:21;36.17;;;20.23;;
8628;SDS011;4352;49.404;11.092;2022-12-15T01:38:49;38.37;;;19.33;;
8628;SDS011;4352;49.404;11.092;2022-12-15T01:41:16;39.00;;;21.47;;
8628;SDS011;4352;49.404;11.092;2022-12-15T01:43:43;41.27;;;21.10;;
8628;SDS011;4352;49.404;11.092;2022-12-15T01:46:11;40.87;;;21.60;;
8628;SDS011;4352;49.404;11.092;2022-12-15T01:48:40;40.47;;;21.03;;
8628;SDS011;4352;49.404;11.092;2022-12-15T01:51:12;47.00;;;21.43;;
8628;SDS011;4352;49.404;11.092;2022-12-15T01:53:41;36.27;;;20.60;;
8628;SDS011;4352;49.404;11.092;2022-12-15T01:56:10;37.70;;;20.93;;
8628;SDS011;4352;49.404;11.092;2022-12-15T01:58:37;42.23;;;20.33;;
8628;SDS011;4352;49.404;11.092;2022-12-15T02:01:06;41.80;;;20.87;;
8628;SDS011;4352;49.404;11.092;2022-12-15T02:03:34;41.07;;;21.77;;
8628;SDS011;4352;49.404;11.092;2022-12-15T02:06:01;34.23;;;19.87;;
8628;SDS011;4352;49.404;11.092;2022-12-15T02:08:28;38.53;;;20.97;;
8628;SDS011;4352;49.404;11.092;2022-12-15T02:11:00;41.73;;;21.97;;
8628;SDS011;4352;49.404;11.092;2022-12-15T02:13:32;42.30;;;22.27;;
8628;SDS011;4352;49.404;11.092;2022-12-15T02:16:04;38.23;;;20.73;;
8628;SDS011;4352;49.404;11.092;2022-12-15T02:18:36;40.90;;;21.70;;
8628;SDS011;4352;49.404;11.092;2022-12-15T02:21:08;42.43;;;22.40;;
8628;SDS011;4352;49.404;11.092;2022-12-15T02:23:50;41.73;;;22.03;;
8628;SDS011;4352;49.404;11.092;2022-12-15T02:26:29;42.57;;;21.43;;
8628;SDS011;4352;49.404;11.092;2022-12-15T02:29:07;41.90;;;20.73;;
8628;SDS011;4352;49.404;11.092;2022-12-15T02:31:39;41.40;;;22.00;;
8628;SDS011;4352;49.404;11.092;2022-12-15T02:34:16;43.33;;;22.37;;
8628;SDS011;4352;49.404;11.092;2022-12-15T02:36:45;45.67;;;23.03;;
8628;SDS011;4352;49.404;11.092;2022-12-15T02:39:16;44.70;;;23.27;;
8628;SDS011;4352;49.404;11.092;2022-12-15T02:41:44;44.73;;;22.60;;
8628;SDS011;4352;49.404;11.092;2022-12-15T02:44:12;44.10;;;23.13;;
8628;SDS011;4352;49.404;11.092;2022-12-15T02:46:49;43.93;;;23.10;;
8628;SDS011;4352;49.404;11.092;2022-12-15T02:49:21;43.47;;;22.53;;
8628;SDS011;4352;49.404;11.092;2022-12-15T02:51:51;41.13;;;22.03;;
8628;SDS011;4352;49.404;11.092;2022-12-15T02:57:07;39.60;;;21.40;;
8628;SDS011;4352;49.404;11.092;2022-12-15T02:59:38;45.70;;;23.40;;
8628;SDS011;4352;49.404;11.092;2022-12-15T03:02:09;45.97;;;22.67;;
8628;SDS011;4352;49.404;11.092;2022-12-15T03:04:38;41.33;;;22.13;;
8628;SDS011;4352;49.404;11.092;2022-12-15T03:07:07;44.80;;;22.67;;
8628;SDS011;4352;49.404;11.092;2022-12-15T03:09:34;46.83;;;23.17;;
8628;SDS011;4352;49.404;11.092;2022-12-15T03:12:02;40.20;;;21.43;;
8628;SDS011;4352;49.404;11.092;2022-12-15T03:14:29;43.57;;;22.00;;
8628;SDS011;4352;49.404;11.092;2022-12-15T03:16:56;42.87;;;22.77;;
8628;SDS011;4352;49.404;11.092;2022-12-15T03:19:24;49.97;;;23.87;;
8628;SDS011;4352;49.404;11.092;2022-12-15T03:21:52;44.70;;;22.90;;
8628;SDS011;4352;49.404;11.092;2022-12-15T03:24:20;45.37;;;23.13;;
8628;SDS011;4352;49.404;11.092;2022-12-15T03:26:47;44.00;;;23.10;;
8628;SDS011;4352;49.404;11.092;2022-12-15T03:29:15;41.47;;;22.23;;
8628;SDS011;4352;49.404;11.092;2022-12-15T03:31:42;43.70;;;22.10;;
8628;SDS011;4352;49.404;11.092;2022-12-15T03:34:09;46.17;;;23.07;;
8628;SDS011;4352;49.404;11.092;2022-12-15T03:36:38;42.83;;;21.40;;
8628;SDS011;4352;49.404;11.092;2022-12-15T03:39:05;44.63;;;23.47;;
8628;SDS011;4352;49.404;11.092;2022-12-15T03:41:32;46.53;;;22.63;;
8628;SDS011;4352;49.404;11.092;2022-12-15T03:43:59;42.80;;;22.33;;
8628;SDS011;4352;49.404;11.092;2022-12-15T03:46:27;44.37;;;22.67;;
8628;SDS011;4352;49.404;11.092;2022-12-15T03:48:54;43.70;;;23.33;;
8628;SDS011;4352;49.404;11.092;2022-12-15T03:51:21;44.40;;;23.03;;
8628;SDS011;4352;49.404;11.092;2022-12-15T03:53:49;44.33;;;22.07;;
8628;SDS011;4352;49.404;11.092;2022-12-15T03:56:17;42.57;;;22.17;;
8628;SDS011;4352;49.404;11.092;2022-12-15T03:58:45;48.60;;;24.37;;
8628;SDS011;4352;49.404;11.092;2022-12-15T04:01:25;41.67;;;22.17;;
8628;SDS011;4352;49.404;11.092;2022-12-15T04:03:52;46.37;;;21.73;;
8628;SDS011;4352;49.404;11.092;2022-12-15T04:06:19;45.87;;;22.37;;
8628;SDS011;4352;49.404;11.092;2022-12-15T04:08:47;48.03;;;23.30;;
8628;SDS011;4352;49.404;11.092;2022-12-15T04:11:15;46.47;;;23.37;;
8628;SDS011;4352;49.404;11.092;2022-12-15T04:13:42;47.03;;;23.13;;
8628;SDS011;4352;49.404;11.092;2022-12-15T04:16:10;46.20;;;23.30;;
8628;SDS011;4352;49.404;11.092;2022-12-15T04:18:37;47.27;;;24.50;;
8628;SDS011;4352;49.404;11.092;2022-12-15T04:21:04;45.73;;;22.60;;
8628;SDS011;4352;49.404;11.092;2022-12-15T04:23:30;49.63;;;24.77;;
8628;SDS011;4352;49.404;11.092;2022-12-15T04:25:57;46.63;;;23.73;;
8628;SDS011;4352;49.404;11.092;2022-12-15T04:28:43;45.27;;;22.80;;
8628;SDS011;4352;49.404;11.092;2022-12-15T04:31:28;49.53;;;24.53;;
8628;SDS011;4352;49.404;11.092;2022-12-15T04:34:14;47.03;;;22.10;;
8628;SDS011;4352;49.404;11.092;2022-12-15T04:37:00;48.00;;;22.97;;
8628;SDS011;4352;49.404;11.092;2022-12-15T04:39:48;48.27;;;23.73;;
8628;SDS011;4352;49.404;11.092;2022-12-15T04:42:34;49.77;;;24.27;;
8628;SDS011;4352;49.404;11.092;2022-12-15T04:45:21;50.70;;;24.13;;
8628;SDS011;4352;49.404;11.092;2022-12-15T04:48:07;44.20;;;23.13;;
8628;SDS011;4352;49.404;11.092;2022-12-15T04:50:52;47.13;;;22.73;;
8628;SDS011;4352;49.404;11.092;2022-12-15T04:53:36;48.67;;;23.07;;
8628;SDS011;4352;49.404;11.092;2022-12-15T04:56:21;55.53;;;23.93;;
8628;SDS011;4352;49.404;11.092;2022-12-15T04:59:06;52.87;;;24.83;;
8628;SDS011;4352;49.404;11.092;2022-12-15T05:01:52;49.87;;;24.43;;
8628;SDS011;4352;49.404;11.092;2022-12-15T05:04:36;48.63;;;23.27;;
8628;SDS011;4352;49.404;11.092;2022-12-15T05:07:22;49.27;;;24.20;;
8628;SDS011;4352;49.404;11.092;2022-12-15T05:10:07;47.87;;;23.87;;
8628;SDS011;4352;49.404;11.092;2022-12-15T05:12:52;49.10;;;24.33;;
8628;SDS011;4352;49.404;11.092;2022-12-15T05:15:37;47.03;;;23.37;;
8628;SDS011;4352;49.404;11.092;2022-12-15T05:18:23;49.67;;;24.40;;
8628;SDS011;4352;49.404;11.092;2022-12-15T05:21:08;52.00;;;24.37;;
8628;SDS011;4352;49.404;11.092;2022-12-15T05:23:52;49.63;;;23.87;;
8628;SDS011;4352;49.404;11.092;2022-12-15T05:26:37;47.17;;;22.53;;
8628;SDS011;4352;49.404;11.092;2022-12-15T05:29:21;53.40;;;24.70;;
8628;SDS011;4352;49.404;11.092;2022-12-15T05:32:06;46.30;;;23.17;;
8628;SDS011;4352;49.404;11.092;2022-12-15T05:34:35;55.47;;;26.03;;
8628;SDS011;4352;49.404;11.092;2022-12-15T05:37:03;48.33;;;23.83;;
8628;SDS011;4352;49.404;11.092;2022-12-15T05:39:31;53.43;;;25.77;;
8628;SDS011;4352;49.404;11.092;2022-12-15T05:41:58;47.43;;;24.57;;
8628;SDS011;4352;49.404;11.092;2022-12-15T05:44:25;52.60;;;24.17;;
8628;SDS011;4352;49.404;11.092;2022-12-15T05:46:52;51.53;;;26.03;;
8628;SDS011;4352;49.404;11.092;2022-12-15T05:49:19;53.03;;;26.13;;
8628;SDS011;4352;49.404;11.092;2022-12-15T05:51:49;51.80;;;25.70;;
8628;SDS011;4352;49.404;11.092;2022-12-15T05:54:18;55.40;;;25.30;;
8628;SDS011;4352;49.404;11.092;2022-12-15T05:56:45;51.87;;;26.47;;
8628;SDS011;4352;49.404;11.092;2022-12-15T05:59:12;54.90;;;25.87;;
8628;SDS011;4352;49.404;11.092;2022-12-15T06:01:39;60.57;;;25.40;;
8628;SDS011;4352;49.404;11.092;2022-12-15T06:04:07;52.80;;;25.10;;
8628;SDS011;4352;49.404;11.092;2022-12-15T06:06:34;48.47;;;25.80;;
8628;SDS011;4352;49.404;11.092;2022-12-15T06:09:02;58.63;;;25.93;;
8628;SDS011;4352;49.404;11.092;2022-12-15T06:11:29;51.10;;;25.33;;
8628;SDS011;4352;49.404;11.092;2022-12-15T06:13:56;45.23;;;24.40;;
8628;SDS011;4352;49.404;11.092;2022-12-15T06:16:24;51.97;;;25.07;;
8628;SDS011;4352;49.404;11.092;2022-12-15T06:18:54;52.30;;;24.53;;
8628;SDS011;4352;49.404;11.092;2022-12-15T06:21:22;46.97;;;23.63;;
8628;SDS011;4352;49.404;11.092;2022-12-15T06:23:49;47.97;;;23.97;;
8628;SDS011;4352;49.404;11.092;2022-12-15T06:26:18;54.57;;;26.00;;
8628;SDS011;4352;49.404;11.092;2022-12-15T06:28:46;50.13;;;24.60;;
8628;SDS011;4352;49.404;11.092;2022-12-15T06:31:13;53.67;;;25.57;;
8628;SDS011;4352;49.404;11.092;2022-12-15T06:33:41;55.73;;;24.47;;
8628;SDS011;4352;49.404;11.092;2022-12-15T06:36:10;52.77;;;26.33;;
8628;SDS011;4352;49.404;11.092;2022-12-15T06:38:37;53.63;;;26.10;;
8628;SDS011;4352;49.404;11.092;2022-12-15T06:41:07;48.23;;;25.00;;
8628;SDS011;4352;49.404;11.092;2022-12-15T06:43:36;53.33;;;25.37;;
8628;SDS011;4352;49.404;11.092;2022-12-15T06:46:03;48.00;;;24.27;;
8628;SDS011;4352;49.404;11.092;2022-12-15T06:48:30;48.43;;;23.67;;
8628;SDS011;4352;49.404;11.092;2022-12-15T06:51:00;48.17;;;22.90;;
8628;SDS011;4352;49.404;11.092;2022-12-15T06:53:28;52.33;;;24.47;;
8628;SDS011;4352;49.404;11.092;2022-12-15T06:55:58;48.13;;;23.80;;
8628;SDS011;4352;49.404;11.092;2022-12-15T06:58:25;55.13;;;23.70;;
8628;SDS011;4352;49.404;11.092;2022-12-15T07:00:54;57.30;;;24.77;;
8628;SDS011;4352;49.404;11.092;2022-12-15T07:03:21;50.93;;;24.50;;
8628;SDS011;4352;49.404;11.092;2022-12-15T07:05:58;56.10;;;26.17;;
8628;SDS011;4352;49.404;11.092;2022-12-15T07:08:26;55.47;;;25.77;;
8628;SDS011;4352;49.404;11.092;2022-12-15T07:10:53;53.80;;;23.97;;
8628;SDS011;4352;49.404;11.092;2022-12-15T07:13:20;65.07;;;27.43;;
8628;SDS011;4352;49.404;11.092;2022-12-15T07:15:47;55.83;;;27.10;;
8628;SDS011;4352;49.404;11.092;2022-12-15T07:18:16;50.07;;;26.33;;
8628;SDS011;4352;49.404;11.092;2022-12-15T07:20:44;57.27;;;27.00;;
8628;SDS011;4352;49.404;11.092;2022-12-15T07:23:12;51.10;;;25.70;;
8628;SDS011;4352;49.404;11.092;2022-12-15T07:25:39;49.43;;;24.90;;
8628;SDS011;4352;49.404;11.092;2022-12-15T07:28:06;52.50;;;25.73;;
8628;SDS011;4352;49.404;11.092;2022-12-15T07:30:33;50.50;;;25.83;;
8628;SDS011;4352;49.404;11.092;2022-12-15T07:33:00;53.10;;;26.50;;
8628;SDS011;4352;49.404;11.092;2022-12-15T07:35:29;48.30;;;24.60;;
8628;SDS011;4352;49.404;11.092;2022-12-15T07:37:56;51.37;;;24.70;;
8628;SDS011;4352;49.404;11.092;2022-12-15T07:40:24;48.33;;;25.03;;
8628;SDS011;4352;49.404;11.092;2022-12-15T07:42:51;51.10;;;24.93;;
8628;SDS011;4352;49.404;11.092;2022-12-15T07:45:18;53.27;;;25.97;;
8628;SDS011;4352;49.404;11.092;2022-12-15T07:47:47;49.23;;;24.93;;
8628;SDS011;4352;49.404;11.092;2022-12-15T07:50:15;64.10;;;30.00;;
8628;SDS011;4352;49.404;11.092;2022-12-15T07:52:43;65.33;;;30.67;;
8628;SDS011;4352;49.404;11.092;2022-12-15T07:55:10;61.50;;;30.33;;
8628;SDS011;4352;49.404;11.092;2022-12-15T07:57:37;56.50;;;27.43;;
8628;SDS011;4352;49.404;11.092;2022-12-15T08:00:05;52.87;;;27.63;;
8628;SDS011;4352;49.404;11.092;2022-12-15T08:02:34;56.90;;;26.57;;
8628;SDS011;4352;49.404;11.092;2022-12-15T08:05:01;53.50;;;25.87;;
8628;SDS011;4352;49.404;11.092;2022-12-15T08:07:28;53.37;;;25.90;;
8628;SDS011;4352;49.404;11.092;2022-12-15T08:09:57;44.33;;;23.83;;
8628;SDS011;4352;49.404;11.092;2022-12-15T08:12:25;50.63;;;23.90;;
8628;SDS011;4352;49.404;11.092;2022-12-15T08:14:52;51.30;;;24.53;;
8628;SDS011;4352;49.404;11.092;2022-12-15T08:17:19;46.37;;;23.80;;
8628;SDS011;4352;49.404;11.092;2022-12-15T08:19:47;50.30;;;25.67;;
8628;SDS011;4352;49.404;11.092;2022-12-15T08:22:14;50.67;;;25.17;;
8628;SDS011;4352;49.404;11.092;2022-12-15T08:24:41;46.70;;;24.13;;
8628;SDS011;4352;49.404;11.092;2022-12-15T08:27:09;45.60;;;23.40;;
8628;SDS011;4352;49.404;11.092;2022-12-15T08:29:36;45.07;;;24.83;;
8628;SDS011;4352;49.404;11.092;2022-12-15T08:32:04;46.87;;;23.73;;
8628;SDS011;4352;49.404;11.092;2022-12-15T08:34:31;47.57;;;24.60;;
8628;SDS011;4352;49.404;11.092;2022-12-15T08:36:58;45.37;;;24.10;;
8628;SDS011;4352;49.404;11.092;2022-12-15T08:39:26;47.20;;;25.10;;
8628;SDS011;4352;49.404;11.092;2022-12-15T08:41:54;41.50;;;22.50;;
8628;SDS011;4352;49.404;11.092;2022-12-15T08:44:22;39.00;;;22.00;;
8628;SDS011;4352;49.404;11.092;2022-12-15T08:46:50;41.60;;;23.23;;
8628;SDS011;4352;49.404;11.092;2022-12-15T08:49:17;41.20;;;22.70;;
8628;SDS011;4352;49.404;11.092;2022-12-15T08:51:44;46.07;;;23.07;;
8628;SDS011;4352;49.404;11.092;2022-12-15T08:54:11;42.07;;;23.33;;
8628;SDS011;4352;49.404;11.092;2022-12-15T08:56:38;42.13;;;22.43;;
8628;SDS011;4352;49.404;11.092;2022-12-15T08:59:05;46.07;;;24.03;;
8628;SDS011;4352;49.404;11.092;2022-12-15T09:01:34;40.20;;;22.00;;
8628;SDS011;4352;49.404;11.092;2022-12-15T09:04:04;40.83;;;22.13;;
8628;SDS011;4352;49.404;11.092;2022-12-15T09:06:32;41.33;;;22.03;;
8628;SDS011;4352;49.404;11.092;2022-12-15T09:09:05;44.93;;;22.73;;
8628;SDS011;4352;49.404;11.092;2022-12-15T09:11:32;46.03;;;22.90;;
8628;SDS011;4352;49.404;11.092;2022-12-15T09:14:00;41.50;;;22.57;;
8628;SDS011;4352;49.404;11.092;2022-12-15T09:16:27;51.43;;;22.87;;
8628;SDS011;4352;49.404;11.092;2022-12-15T09:18:56;39.13;;;22.90;;
8628;SDS011;4352;49.404;11.092;2022-12-15T09:21:25;42.43;;;21.53;;
8628;SDS011;4352;49.404;11.092;2022-12-15T09:23:52;43.93;;;22.83;;
8628;SDS011;4352;49.404;11.092;2022-12-15T09:26:21;40.03;;;22.30;;
8628;SDS011;4352;49.404;11.092;2022-12-15T09:28:48;38.57;;;23.07;;
8628;SDS011;4352;49.404;11.092;2022-12-15T09:31:16;41.23;;;23.00;;
8628;SDS011;4352;49.404;11.092;2022-12-15T09:33:46;39.17;;;22.63;;
8628;SDS011;4352;49.404;11.092;2022-12-15T09:36:14;41.97;;;21.37;;
8628;SDS011;4352;49.404;11.092;2022-12-15T09:38:42;36.77;;;22.57;;
8628;SDS011;4352;49.404;11.092;2022-12-15T09:41:12;40.20;;;22.27;;
8628;SDS011;4352;49.404;11.092;2022-12-15T09:43:47;45.00;;;23.13;;
8628;SDS011;4352;49.404;11.092;2022-12-15T09:46:19;39.97;;;23.17;;
8628;SDS011;4352;49.404;11.092;2022-12-15T09:48:50;40.20;;;22.67;;
8628;SDS011;4352;49.404;11.092;2022-12-15T09:51:25;39.87;;;21.63;;
8628;SDS011;4352;49.404;11.092;2022-12-15T09:53:55;39.30;;;21.27;;
8628;SDS011;4352;49.404;11.092;2022-12-15T09:56:24;40.17;;;22.13;;
8628;SDS011;4352;49.404;11.092;2022-12-15T09:58:53;39.30;;;21.47;;
8628;SDS011;4352;49.404;11.092;2022-12-15T10:01:25;38.00;;;20.83;;
8628;SDS011;4352;49.404;11.092;2022-12-15T10:03:54;34.80;;;19.60;;
8628;SDS011;4352;49.404;11.092;2022-12-15T10:06:24;36.93;;;20.13;;
8628;SDS011;4352;49.404;11.092;2022-12-15T10:08:57;36.07;;;20.43;;
8628;SDS011;4352;49.404;11.092;2022-12-15T10:11:34;36.20;;;21.57;;
8628;SDS011;4352;49.404;11.092;2022-12-15T10:14:08;39.03;;;21.57;;
8628;SDS011;4352;49.404;11.092;2022-12-15T10:16:40;37.30;;;19.43;;
8628;SDS011;4352;49.404;11.092;2022-12-15T10:19:13;37.13;;;21.30;;
8628;SDS011;4352;49.404;11.092;2022-12-15T10:21:44;36.17;;;20.77;;
8628;SDS011;4352;49.404;11.092;2022-12-15T10:24:13;34.40;;;19.70;;
8628;SDS011;4352;49.404;11.092;2022-12-15T10:26:41;44.83;;;23.07;;
8628;SDS011;4352;49.404;11.092;2022-12-15T10:29:12;47.57;;;22.93;;
8628;SDS011;4352;49.404;11.092;2022-12-15T10:31:44;55.73;;;27.50;;
8628;SDS011;4352;49.404;11.092;2022-12-15T10:34:16;40.07;;;22.03;;
8628;SDS011;4352;49.404;11.092;2022-12-15T10:36:48;44.63;;;22.40;;
8628;SDS011;4352;49.404;11.092;2022-12-15T10:39:15;42.73;;;23.70;;
8628;SDS011;4352;49.404;11.092;2022-12-15T10:41:43;40.23;;;22.57;;
8628;SDS011;4352;49.404;11.092;2022-12-15T10:44:20;38.83;;;21.90;;
8628;SDS011;4352;49.404;11.092;2022-12-15T10:46:53;44.10;;;21.40;;
8628;SDS011;4352;49.404;11.092;2022-12-15T10:49:21;46.03;;;23.17;;
8628;SDS011;4352;49.404;11.092;2022-12-15T10:51:50;39.13;;;22.23;;
8628;SDS011;4352;49.404;11.092;2022-12-15T10:54:19;46.13;;;23.67;;
8628;SDS011;4352;49.404;11.092;2022-12-15T10:56:47;37.60;;;20.80;;
8628;SDS011;4352;49.404;11.092;2022-12-15T10:59:21;36.60;;;20.63;;
8628;SDS011;4352;49.404;11.092;2022-12-15T11:01:49;40.10;;;21.67;;
8628;SDS011;4352;49.404;11.092;2022-12-15T11:04:23;39.80;;;22.13;;
8628;SDS011;4352;49.404;11.092;2022-12-15T11:06:55;38.87;;;21.87;;
8628;SDS011;4352;49.404;11.092;2022-12-15T11:09:26;37.37;;;20.47;;
8628;SDS011;4352;49.404;11.092;2022-12-15T11:11:53;41.77;;;22.47;;
8628;SDS011;4352;49.404;11.092;2022-12-15T11:14:41;39.83;;;21.93;;
8628;SDS011;4352;49.404;11.092;2022-12-15T11:17:08;41.97;;;21.77;;
8628;SDS011;4352;49.404;11.092;2022-12-15T11:19:37;45.07;;;24.50;;
8628;SDS011;4352;49.404;11.092;2022-12-15T11:22:11;43.23;;;21.90;;
8628;SDS011;4352;49.404;11.092;2022-12-15T11:24:41;42.23;;;23.43;;
8628;SDS011;4352;49.404;11.092;2022-12-15T11:27:12;42.00;;;22.53;;
8628;SDS011;4352;49.404;11.092;2022-12-15T11:29:50;40.03;;;22.67;;
8628;SDS011;4352;49.404;11.092;2022-12-15T11:32:22;40.87;;;22.07;;
8628;SDS011;4352;49.404;11.092;2022-12-15T11:34:49;38.70;;;21.87;;
8628;SDS011;4352;49.404;11.092;2022-12-15T11:43:08;38.40;;;21.87;;
8628;SDS011;4352;49.404;11.092;2022-12-15T11:45:39;37.53;;;21.43;;
8628;SDS011;4352;49.404;11.092;2022-12-15T11:48:09;40.10;;;23.03;;
8628;SDS011;4352;49.404;11.092;2022-12-15T11:50:39;38.37;;;21.03;;
8628;SDS011;4352;49.404;11.092;2022-12-15T11:53:10;39.00;;;21.90;;
8628;SDS011;4352;49.404;11.092;2022-12-15T11:55:40;45.43;;;22.63;;
8628;SDS011;4352;49.404;11.092;2022-12-15T11:58:21;42.50;;;23.43;;
8628;SDS011;4352;49.404;11.092;2022-12-15T12:00:52;43.20;;;22.77;;
8628;SDS011;4352;49.404;11.092;2022-12-15T12:03:24;43.70;;;23.90;;
8628;SDS011;4352;49.404;11.092;2022-12-15T12:05:56;39.90;;;21.63;;
8628;SDS011;4352;49.404;11.092;2022-12-15T12:08:34;39.37;;;21.50;;
8628;SDS011;4352;49.404;11.092;2022-12-15T12:11:07;44.10;;;22.47;;
8628;SDS011;4352;49.404;11.092;2022-12-15T12:13:41;38.20;;;21.23;;
8628;SDS011;4352;49.404;11.092;2022-12-15T12:16:17;42.30;;;23.10;;
8628;SDS011;4352;49.404;11.092;2022-12-15T12:18:50;41.00;;;22.13;;
8628;SDS011;4352;49.404;11.092;2022-12-15T12:21:22;50.23;;;23.97;;
8628;SDS011;4352;49.404;11.092;2022-12-15T12:23:52;43.33;;;24.37;;
8628;SDS011;4352;49.404;11.092;2022-12-15T12:26:20;43.47;;;23.47;;
8628;SDS011;4352;49.404;11.092;2022-12-15T12:28:51;43.40;;;22.07;;
8628;SDS011;4352;49.404;11.092;2022-12-15T12:31:24;43.57;;;22.67;;
8628;SDS011;4352;49.404;11.092;2022-12-15T12:33:53;44.73;;;23.70;;
8628;SDS011;4352;49.404;11.092;2022-12-15T12:36:21;41.07;;;20.43;;
8628;SDS011;4352;49.404;11.092;2022-12-15T12:38:49;40.83;;;21.83;;
8628;SDS011;4352;49.404;11.092;2022-12-15T12:41:21;41.23;;;21.80;;
8628;SDS011;4352;49.404;11.092;2022-12-15T12:43:53;46.57;;;22.23;;
8628;SDS011;4352;49.404;11.092;2022-12-15T12:46:22;46.53;;;21.33;;
8628;SDS011;4352;49.404;11.092;2022-12-15T12:48:51;44.23;;;21.37;;
8628;SDS011;4352;49.404;11.092;2022-12-15T12:51:22;51.47;;;25.30;;
8628;SDS011;4352;49.404;11.092;2022-12-15T12:53:50;43.73;;;22.20;;
8628;SDS011;4352;49.404;11.092;2022-12-15T12:56:27;41.87;;;20.13;;
8628;SDS011;4352;49.404;11.092;2022-12-15T12:58:56;36.97;;;19.73;;
8628;SDS011;4352;49.404;11.092;2022-12-15T13:01:24;40.13;;;21.03;;
8628;SDS011;4352;49.404;11.092;2022-12-15T13:09:21;41.30;;;20.13;;
8628;SDS011;4352;49.404;11.092;2022-12-15T13:17:05;36.47;;;20.67;;
8628;SDS011;4352;49.404;11.092;2022-12-15T13:22:22;44.33;;;21.87;;
8628;SDS011;4352;49.404;11.092;2022-12-15T13:24:50;41.17;;;20.53;;
8628;SDS011;4352;49.404;11.092;2022-12-15T13:27:17;38.77;;;19.60;;
8628;SDS011;4352;49.404;11.092;2022-12-15T13:29:54;34.70;;;18.77;;
8628;SDS011;4352;49.404;11.092;2022-12-15T13:32:26;39.73;;;20.43;;
8628;SDS011;4352;49.404;11.092;2022-12-15T13:34:54;34.93;;;18.53;;
8628;SDS011;4352;49.404;11.092;2022-12-15T13:40:16;35.60;;;18.77;;
8628;SDS011;4352;49.404;11.092;2022-12-15T13:42:55;47.90;;;22.00;;
8628;SDS011;4352;49.404;11.092;2022-12-15T13:48:11;35.60;;;19.03;;
8628;SDS011;4352;49.404;11.092;2022-12-15T13:50:40;35.53;;;18.70;;
8628;SDS011;4352;49.404;11.092;2022-12-15T13:53:12;30.20;;;16.97;;
8628;SDS011;4352;49.404;11.092;2022-12-15T13:55:45;34.23;;;18.00;;
8628;SDS011;4352;49.404;11.092;2022-12-15T13:58:17;31.67;;;16.93;;
8628;SDS011;4352;49.404;11.092;2022-12-15T14:00:47;32.60;;;17.33;;
8628;SDS011;4352;49.404;11.092;2022-12-15T14:03:16;32.57;;;17.87;;
8628;SDS011;4352;49.404;11.092;2022-12-15T14:05:46;30.00;;;16.97;;
8628;SDS011;4352;49.404;11.092;2022-12-15T14:08:14;32.90;;;17.70;;
8628;SDS011;4352;49.404;11.092;2022-12-15T14:10:42;29.83;;;17.30;;
8628;SDS011;4352;49.404;11.092;2022-12-15T14:13:12;30.30;;;16.73;;
8628;SDS011;4352;49.404;11.092;2022-12-15T14:15:41;32.83;;;18.27;;
8628;SDS011;4352;49.404;11.092;2022-12-15T14:18:20;35.00;;;17.17;;
8628;SDS011;4352;49.404;11.092;2022-12-15T14:20:48;34.83;;;19.47;;
8628;SDS011;4352;49.404;11.092;2022-12-15T14:23:19;36.47;;;19.00;;
8628;SDS011;4352;49.404;11.092;2022-12-15T14:25:56;35.70;;;18.60;;
8628;SDS011;4352;49.404;11.092;2022-12-15T14:28:28;36.43;;;18.60;;
8628;SDS011;4352;49.404;11.092;2022-12-15T14:30:59;35.33;;;18.37;;
8628;SDS011;4352;49.404;11.092;2022-12-15T14:33:29;37.50;;;19.00;;
8628;SDS011;4352;49.404;11.092;2022-12-15T14:35:57;39.27;;;19.73;;
8628;SDS011;4352;49.404;11.092;2022-12-15T14:38:25;31.63;;;18.67;;
8628;SDS011;4352;49.404;11.092;2022-12-15T14:40:54;36.30;;;18.33;;
8628;SDS011;4352;49.404;11.092;2022-12-15T14:43:23;36.13;;;18.90;;
8628;SDS011;4352;49.404;11.092;2022-12-15T14:45:52;34.50;;;18.67;;
8628;SDS011;4352;49.404;11.092;2022-12-15T14:48:21;39.87;;;19.43;;
8628;SDS011;4352;49.404;11.092;2022-12-15T14:50:52;36.77;;;19.27;;
8628;SDS011;4352;49.404;11.092;2022-12-15T14:53:19;31.33;;;18.63;;
8628;SDS011;4352;49.404;11.092;2022-12-15T14:55:46;37.03;;;20.03;;
8628;SDS011;4352;49.404;11.092;2022-12-15T14:58:21;36.03;;;19.37;;
8628;SDS011;4352;49.404;11.092;2022-12-15T15:00:51;38.13;;;20.20;;
8628;SDS011;4352;49.404;11.092;2022-12-15T15:03:19;38.37;;;20.30;;
8628;SDS011;4352;49.404;11.092;2022-12-15T15:05:47;40.13;;;21.63;;
8628;SDS011;4352;49.404;11.092;2022-12-15T15:08:18;38.93;;;20.73;;
8628;SDS011;4352;49.404;11.092;2022-12-15T15:10:48;41.07;;;22.17;;
8628;SDS011;4352;49.404;11.092;2022-12-15T15:13:16;38.27;;;19.83;;
8628;SDS011;4352;49.404;11.092;2022-12-15T15:15:50;51.80;;;28.03;;
8628;SDS011;4352;49.404;11.092;2022-12-15T15:18:17;40.20;;;21.80;;
8628;SDS011;4352;49.404;11.092;2022-12-15T15:20:48;42.43;;;23.20;;
8628;SDS011;4352;49.404;11.092;2022-12-15T15:23:19;42.73;;;22.33;;
8628;SDS011;4352;49.404;11.092;2022-12-15T15:25:49;46.63;;;22.97;;